createdAt,value
2018-09-27T00:00:32.771Z,101564
2018-09-27T00:01:37.363Z,101575
2018-09-27T00:02:42.569Z,101587
2018-09-27T00:03:48.167Z,101573
2018-09-27T00:04:53.236Z,101567
2018-09-27T00:05:58.421Z,101561
2018-09-27T00:07:03.254Z,101567
2018-09-27T00:08:08.131Z,101573
2018-09-27T00:09:13.593Z,101561
2018-09-27T00:10:19.191Z,101561
2018-09-27T00:11:24.620Z,101555
2018-09-27T00:12:30.852Z,101561
2018-09-27T00:13:35.246Z,101561
2018-09-27T00:14:40.678Z,101549
2018-09-27T00:15:46.704Z,101558
2018-09-27T00:16:52.135Z,101549
2018-09-27T00:17:57.297Z,101558
2018-09-27T00:19:02.853Z,101555
2018-09-27T00:20:08.291Z,101561
2018-09-27T00:21:13.784Z,101555
2018-09-27T00:22:18.805Z,101552
2018-09-27T00:23:24.002Z,101543
2018-09-27T00:24:29.138Z,101552
2018-09-27T00:25:34.408Z,101558
2018-09-27T00:26:39.620Z,101552
2018-09-27T00:27:45.052Z,101555
2018-09-27T00:28:50.305Z,101543
2018-09-27T00:29:55.556Z,101555
2018-09-27T00:31:01.209Z,101555
2018-09-27T00:32:05.803Z,101558
2018-09-27T00:33:11.290Z,101552
2018-09-27T00:34:17.150Z,101558
2018-09-27T00:35:22.500Z,101558
2018-09-27T00:36:28.310Z,101555
2018-09-27T00:37:33.739Z,101546
2018-09-27T00:38:38.911Z,101561
2018-09-27T00:39:43.713Z,101558
2018-09-27T00:40:48.578Z,101552
2018-09-27T00:41:53.730Z,101558
2018-09-27T00:42:59.576Z,101552
2018-09-27T00:44:05.024Z,101543
2018-09-27T00:45:09.938Z,101546
2018-09-27T00:46:15.615Z,101552
2018-09-27T00:47:21.077Z,101549
2018-09-27T00:48:27.053Z,101555
2018-09-27T00:49:32.280Z,101546
2018-09-27T00:50:37.432Z,101555
2018-09-27T00:51:43.050Z,101549
2018-09-27T00:52:48.509Z,101543
2018-09-27T00:53:53.651Z,101558
2018-09-27T00:54:59.331Z,101543
2018-09-27T00:56:04.802Z,101549
2018-09-27T00:57:09.676Z,101543
2018-09-27T00:58:14.801Z,101555
2018-09-27T00:59:19.757Z,101555
2018-09-27T01:00:24.615Z,101543
2018-09-27T01:01:44.497Z,101549
2018-09-27T01:02:49.638Z,101567
2018-09-27T01:03:55.538Z,101543
2018-09-27T01:05:00.811Z,101546
2018-09-27T01:06:04.842Z,101549
2018-09-27T01:07:10.293Z,101552
2018-09-27T01:08:15.187Z,101543
2018-09-27T01:09:20.753Z,101549
2018-09-27T01:10:26.365Z,101540
2018-09-27T01:11:31.605Z,101538
2018-09-27T01:12:36.795Z,101543
2018-09-27T01:13:42.261Z,101543
2018-09-27T01:14:47.741Z,101549
2018-09-27T01:15:52.876Z,101549
2018-09-27T01:16:58.309Z,101535
2018-09-27T01:18:03.481Z,101540
2018-09-27T01:19:08.896Z,101532
2018-09-27T01:20:14.150Z,101546
2018-09-27T01:21:19.374Z,101535
2018-09-27T01:22:24.825Z,101529
2018-09-27T01:23:30.054Z,101532
2018-09-27T01:24:35.322Z,101526
2018-09-27T01:25:40.752Z,101529
2018-09-27T01:26:46.185Z,101529
2018-09-27T01:27:52.009Z,101526
2018-09-27T01:28:56.876Z,101529
2018-09-27T01:30:02.124Z,101529
2018-09-27T01:31:06.494Z,101529
2018-09-27T01:32:11.924Z,101523
2018-09-27T01:33:16.786Z,101529
2018-09-27T01:34:22.418Z,101526
2018-09-27T01:35:27.581Z,101532
2018-09-27T01:36:33.123Z,101514
2018-09-27T01:37:38.266Z,101514
2018-09-27T01:38:43.653Z,101520
2018-09-27T01:39:49.090Z,101508
2018-09-27T01:40:54.251Z,101520
2018-09-27T01:41:59.406Z,101508
2018-09-27T01:43:05.023Z,101514
2018-09-27T01:44:10.169Z,101514
2018-09-27T01:45:15.613Z,101508
2018-09-27T01:46:20.784Z,101508
2018-09-27T01:47:26.297Z,101508
2018-09-27T01:48:32.134Z,101506
2018-09-27T01:49:37.685Z,101497
2018-09-27T01:50:43.158Z,101514
2018-09-27T01:51:48.568Z,101503
2018-09-27T01:52:53.251Z,101506
2018-09-27T01:53:58.787Z,101506
2018-09-27T01:55:04.251Z,101500
2018-09-27T01:56:08.562Z,101503
2018-09-27T01:57:13.711Z,101494
2018-09-27T01:58:19.325Z,101497
2018-09-27T01:59:24.753Z,101497
2018-09-27T02:00:30.582Z,101500
2018-09-27T02:01:35.740Z,101500
2018-09-27T02:02:40.875Z,101514
2018-09-27T02:03:46.276Z,101517
2018-09-27T02:04:51.763Z,101500
2018-09-27T02:05:57.204Z,101506
2018-09-27T02:07:02.966Z,101500
2018-09-27T02:08:08.204Z,101503
2018-09-27T02:09:12.524Z,101494
2018-09-27T02:10:18.221Z,101497
2018-09-27T02:11:23.439Z,101492
2018-09-27T02:12:29.115Z,101492
2018-09-27T02:13:34.291Z,101494
2018-09-27T02:14:39.807Z,101494
2018-09-27T02:15:45.257Z,101494
2018-09-27T02:16:50.396Z,101492
2018-09-27T02:17:55.866Z,101489
2018-09-27T02:19:01.659Z,101483
2018-09-27T02:20:06.258Z,101492
2018-09-27T02:21:11.693Z,101492
2018-09-27T02:22:17.125Z,101489
2018-09-27T02:23:21.987Z,101483
2018-09-27T02:24:27.836Z,101483
2018-09-27T02:25:32.988Z,101486
2018-09-27T02:26:38.438Z,101472
2018-09-27T02:27:44.083Z,101492
2018-09-27T02:28:49.230Z,101472
2018-09-27T02:29:54.142Z,101477
2018-09-27T02:31:00.016Z,101469
2018-09-27T02:32:05.159Z,101480
2018-09-27T02:33:10.102Z,101469
2018-09-27T02:34:15.583Z,101472
2018-09-27T02:35:20.450Z,101472
2018-09-27T02:36:40.933Z,101472
2018-09-27T02:37:45.812Z,101466
2018-09-27T02:38:51.044Z,101466
2018-09-27T02:39:56.847Z,101457
2018-09-27T02:41:02.279Z,101454
2018-09-27T02:42:07.452Z,101454
2018-09-27T02:43:13.132Z,101469
2018-09-27T02:44:18.599Z,101454
2018-09-27T02:45:23.540Z,101469
2018-09-27T02:46:29.344Z,101457
2018-09-27T02:47:33.906Z,101460
2018-09-27T02:48:39.311Z,101460
2018-09-27T02:49:44.520Z,101463
2018-09-27T02:50:49.666Z,101454
2018-09-27T02:51:55.003Z,101457
2018-09-27T02:53:00.414Z,101451
2018-09-27T02:54:05.274Z,101454
2018-09-27T02:55:10.966Z,101451
2018-09-27T02:56:16.162Z,101451
2018-09-27T02:57:21.599Z,101451
2018-09-27T02:58:41.537Z,101440
2018-09-27T02:59:46.968Z,101446
2018-09-27T03:00:52.290Z,101448
2018-09-27T03:01:57.272Z,101448
2018-09-27T03:03:02.172Z,101460
2018-09-27T03:04:06.839Z,101460
2018-09-27T03:05:12.313Z,101457
2018-09-27T03:06:17.177Z,101457
2018-09-27T03:07:22.593Z,101457
2018-09-27T03:08:28.115Z,101454
2018-09-27T03:09:33.368Z,101443
2018-09-27T03:10:38.586Z,101454
2018-09-27T03:11:44.098Z,101451
2018-09-27T03:12:49.617Z,101446
2018-09-27T03:13:54.959Z,101448
2018-09-27T03:15:00.734Z,101457
2018-09-27T03:16:05.988Z,101448
2018-09-27T03:17:11.130Z,101454
2018-09-27T03:18:16.286Z,101443
2018-09-27T03:19:21.963Z,101448
2018-09-27T03:20:27.443Z,101454
2018-09-27T03:21:33.373Z,101448
2018-09-27T03:22:38.514Z,101457
2018-09-27T03:23:43.962Z,101451
2018-09-27T03:24:49.413Z,101451
2018-09-27T03:25:54.837Z,101454
2018-09-27T03:27:00.320Z,101448
2018-09-27T03:28:06.079Z,101448
2018-09-27T03:29:11.226Z,101454
2018-09-27T03:30:16.451Z,101451
2018-09-27T03:31:22.314Z,101445
2018-09-27T03:32:27.775Z,101454
2018-09-27T03:33:34.508Z,101454
2018-09-27T03:34:39.364Z,101443
2018-09-27T03:35:44.589Z,101451
2018-09-27T03:36:49.655Z,101457
2018-09-27T03:37:55.086Z,101457
2018-09-27T03:38:59.959Z,101457
2018-09-27T03:40:05.754Z,101443
2018-09-27T03:41:11.089Z,101451
2018-09-27T03:42:16.319Z,101454
2018-09-27T03:43:21.730Z,101448
2018-09-27T03:44:27.175Z,101443
2018-09-27T03:45:32.851Z,101448
2018-09-27T03:46:38.007Z,101448
2018-09-27T03:47:43.447Z,101448
2018-09-27T03:48:49.110Z,101448
2018-09-27T03:49:54.278Z,101451
2018-09-27T03:50:59.700Z,101448
2018-09-27T03:52:05.456Z,101434
2018-09-27T03:53:10.655Z,101448
2018-09-27T03:54:15.795Z,101440
2018-09-27T03:55:21.523Z,101442
2018-09-27T03:56:26.743Z,101451
2018-09-27T03:57:32.575Z,101448
2018-09-27T03:58:38.006Z,101445
2018-09-27T03:59:43.154Z,101434
2018-09-27T04:00:48.002Z,101434
2018-09-27T04:01:53.225Z,101437
2018-09-27T04:02:58.412Z,101440
2018-09-27T04:04:03.525Z,101428
2018-09-27T04:05:08.420Z,101437
2018-09-27T04:06:13.178Z,101437
2018-09-27T04:07:18.961Z,101428
2018-09-27T04:08:24.408Z,101434
2018-09-27T04:09:30.050Z,101428
2018-09-27T04:10:35.477Z,101436
2018-09-27T04:11:40.915Z,101430
2018-09-27T04:12:47.134Z,101433
2018-09-27T04:13:52.057Z,101436
2018-09-27T04:14:57.213Z,101430
2018-09-27T04:16:02.895Z,101433
2018-09-27T04:17:07.845Z,101430
2018-09-27T04:18:12.711Z,101436
2018-09-27T04:19:18.597Z,101430
2018-09-27T04:20:23.842Z,101427
2018-09-27T04:21:29.256Z,101427
2018-09-27T04:22:34.741Z,101432
2018-09-27T04:23:39.679Z,101435
2018-09-27T04:24:44.955Z,101421
2018-09-27T04:25:50.175Z,101429
2018-09-27T04:26:55.753Z,101426
2018-09-27T04:28:00.901Z,101429
2018-09-27T04:29:05.787Z,101438
2018-09-27T04:30:11.222Z,101435
2018-09-27T04:31:17.125Z,101435
2018-09-27T04:32:22.330Z,101423
2018-09-27T04:33:28.132Z,101440
2018-09-27T04:34:33.127Z,101426
2018-09-27T04:35:38.277Z,101423
2018-09-27T04:36:43.397Z,101432
2018-09-27T04:37:48.641Z,101426
2018-09-27T04:38:53.320Z,101429
2018-09-27T04:39:59.007Z,101431
2018-09-27T04:41:03.981Z,101426
2018-09-27T04:42:09.718Z,101425
2018-09-27T04:43:15.107Z,101425
2018-09-27T04:44:19.688Z,101428
2018-09-27T04:45:25.157Z,101428
2018-09-27T04:46:45.777Z,101434
2018-09-27T04:47:51.124Z,101428
2018-09-27T04:48:56.762Z,101425
2018-09-27T04:50:02.193Z,101428
2018-09-27T04:51:07.137Z,101431
2018-09-27T04:52:12.485Z,101428
2018-09-27T04:53:17.865Z,101422
2018-09-27T04:54:23.030Z,101428
2018-09-27T04:55:28.556Z,101419
2018-09-27T04:56:34.154Z,101431
2018-09-27T04:57:40.082Z,101419
2018-09-27T04:58:45.257Z,101425
2018-09-27T04:59:49.944Z,101419
2018-09-27T05:00:55.491Z,101416
2018-09-27T05:02:00.788Z,101410
2018-09-27T05:03:05.985Z,101413
2018-09-27T05:04:11.641Z,101416
2018-09-27T05:05:17.074Z,101410
2018-09-27T05:06:21.896Z,101413
2018-09-27T05:07:27.929Z,101404
2018-09-27T05:08:33.111Z,101413
2018-09-27T05:09:38.279Z,101416
2018-09-27T05:10:43.819Z,101410
2018-09-27T05:11:49.245Z,101410
2018-09-27T05:12:54.400Z,101404
2018-09-27T05:13:59.271Z,101404
2018-09-27T05:15:03.857Z,101404
2018-09-27T05:16:09.277Z,101395
2018-09-27T05:17:14.186Z,101404
2018-09-27T05:18:19.632Z,101401
2018-09-27T05:19:25.817Z,101404
2018-09-27T05:20:31.468Z,101406
2018-09-27T05:21:37.482Z,101404
2018-09-27T05:22:43.330Z,101415
2018-09-27T05:23:48.496Z,101409
2018-09-27T05:24:53.972Z,101403
2018-09-27T05:25:58.645Z,101412
2018-09-27T05:27:03.821Z,101403
2018-09-27T05:28:09.397Z,101412
2018-09-27T05:29:14.546Z,101403
2018-09-27T05:30:19.988Z,101400
2018-09-27T05:31:25.405Z,101397
2018-09-27T05:32:30.651Z,101406
2018-09-27T05:33:36.470Z,101406
2018-09-27T05:34:41.939Z,101406
2018-09-27T05:35:47.390Z,101403
2018-09-27T05:36:52.947Z,101398
2018-09-27T05:37:58.097Z,101409
2018-09-27T05:39:03.331Z,101403
2018-09-27T05:40:08.833Z,101400
2018-09-27T05:41:14.030Z,101406
2018-09-27T05:42:19.334Z,101406
2018-09-27T05:43:25.016Z,101400
2018-09-27T05:44:30.168Z,101406
2018-09-27T05:45:35.911Z,101401
2018-09-27T05:46:41.368Z,101409
2018-09-27T05:47:46.810Z,101404
2018-09-27T05:48:52.621Z,101406
2018-09-27T05:49:57.596Z,101404
2018-09-27T05:51:02.021Z,101401
2018-09-27T05:52:06.581Z,101412
2018-09-27T05:53:12.103Z,101409
2018-09-27T05:54:17.318Z,101407
2018-09-27T05:55:22.924Z,101412
2018-09-27T05:56:28.095Z,101398
2018-09-27T05:57:33.746Z,101401
2018-09-27T05:58:39.221Z,101401
2018-09-27T05:59:44.649Z,101407
2018-09-27T06:00:49.824Z,101407
2018-09-27T06:01:54.977Z,101418
2018-09-27T06:03:00.743Z,101421
2018-09-27T06:04:05.872Z,101415
2018-09-27T06:05:11.027Z,101418
2018-09-27T06:06:15.899Z,101424
2018-09-27T06:07:21.697Z,101410
2018-09-27T06:08:27.140Z,101413
2018-09-27T06:09:32.862Z,101416
2018-09-27T06:10:38.581Z,101425
2018-09-27T06:11:43.770Z,101416
2018-09-27T06:12:49.603Z,101413
2018-09-27T06:13:54.484Z,101416
2018-09-27T06:14:59.694Z,101419
2018-09-27T06:16:05.092Z,101405
2018-09-27T06:17:10.257Z,101414
2018-09-27T06:18:15.726Z,101405
2018-09-27T06:19:21.605Z,101414
2018-09-27T06:20:26.636Z,101411
2018-09-27T06:21:33.017Z,101414
2018-09-27T06:22:38.822Z,101414
2018-09-27T06:23:43.965Z,101420
2018-09-27T06:24:49.530Z,101414
2018-09-27T06:25:55.024Z,101417
2018-09-27T06:26:59.921Z,101406
2018-09-27T06:28:05.498Z,101424
2018-09-27T06:29:10.647Z,101409
2018-09-27T06:30:16.112Z,101427
2018-09-27T06:31:21.892Z,101410
2018-09-27T06:32:27.047Z,101413
2018-09-27T06:33:32.766Z,101407
2018-09-27T06:34:38.134Z,101424
2018-09-27T06:35:43.598Z,101416
2018-09-27T06:36:49.028Z,101419
2018-09-27T06:37:54.242Z,101404
2018-09-27T06:38:59.670Z,101416
2018-09-27T06:40:05.008Z,101416
2018-09-27T06:41:10.564Z,101416
2018-09-27T06:42:16.022Z,101416
2018-09-27T06:43:21.421Z,101422
2018-09-27T06:44:26.732Z,101416
2018-09-27T06:45:32.309Z,101413
2018-09-27T06:46:37.736Z,101416
2018-09-27T06:47:43.166Z,101411
2018-09-27T06:48:48.983Z,101416
2018-09-27T06:49:55.048Z,101417
2018-09-27T06:51:00.506Z,101414
2018-09-27T06:52:05.936Z,101417
2018-09-27T06:53:10.858Z,101414
2018-09-27T06:54:16.367Z,101414
2018-09-27T06:55:22.950Z,101414
2018-09-27T06:56:30.326Z,101420
2018-09-27T06:57:36.724Z,101417
2018-09-27T06:58:42.152Z,101423
2018-09-27T06:59:47.005Z,101423
2018-09-27T07:00:52.410Z,101423
2018-09-27T07:01:58.014Z,101423
2018-09-27T07:03:02.792Z,101417
2018-09-27T07:04:08.266Z,101420
2018-09-27T07:05:13.180Z,101418
2018-09-27T07:06:18.367Z,101423
2018-09-27T07:07:23.843Z,101426
2018-09-27T07:08:29.554Z,101429
2018-09-27T07:09:35.353Z,101429
2018-09-27T07:10:40.217Z,101426
2018-09-27T07:11:45.754Z,101423
2018-09-27T07:12:51.461Z,101421
2018-09-27T07:13:57.535Z,101427
2018-09-27T07:15:03.070Z,101421
2018-09-27T07:16:08.350Z,101427
2018-09-27T07:17:13.773Z,101418
2018-09-27T07:18:18.947Z,101424
2018-09-27T07:19:24.249Z,101412
2018-09-27T07:20:29.152Z,101421
2018-09-27T07:21:34.367Z,101415
2018-09-27T07:22:39.292Z,101424
2018-09-27T07:23:44.738Z,101415
2018-09-27T07:24:50.565Z,101410
2018-09-27T07:25:55.739Z,101410
2018-09-27T07:27:01.121Z,101416
2018-09-27T07:28:06.342Z,101410
2018-09-27T07:29:11.296Z,101418
2018-09-27T07:30:16.161Z,101401
2018-09-27T07:31:21.056Z,101401
2018-09-27T07:32:27.089Z,101404
2018-09-27T07:33:32.533Z,101407
2018-09-27T07:34:37.608Z,101401
2018-09-27T07:35:41.903Z,101410
2018-09-27T07:36:47.371Z,101413
2018-09-27T07:37:52.803Z,101404
2018-09-27T07:38:57.668Z,101404
2018-09-27T07:40:03.192Z,101404
2018-09-27T07:41:08.406Z,101407
2018-09-27T07:42:13.101Z,101407
2018-09-27T07:43:18.538Z,101404
2018-09-27T07:44:24.241Z,101401
2018-09-27T07:45:30.147Z,101401
2018-09-27T07:46:35.289Z,101401
2018-09-27T07:47:39.911Z,101398
2018-09-27T07:48:45.634Z,101398
2018-09-27T07:49:50.784Z,101401
2018-09-27T07:50:56.224Z,101398
2018-09-27T07:52:01.660Z,101401
2018-09-27T07:53:06.449Z,101401
2018-09-27T07:54:11.669Z,101401
2018-09-27T07:55:17.447Z,101398
2018-09-27T07:56:22.673Z,101395
2018-09-27T07:57:28.597Z,101398
2018-09-27T07:58:34.312Z,101395
2018-09-27T07:59:39.746Z,101407
2018-09-27T08:00:44.796Z,101395
2018-09-27T08:01:50.023Z,101392
2018-09-27T08:02:55.633Z,101404
2018-09-27T08:04:01.720Z,101392
2018-09-27T08:05:06.708Z,101392
2018-09-27T08:06:11.868Z,101381
2018-09-27T08:07:17.684Z,101384
2018-09-27T08:08:23.005Z,101384
2018-09-27T08:09:28.640Z,101384
2018-09-27T08:10:33.969Z,101389
2018-09-27T08:11:39.479Z,101378
2018-09-27T08:12:45.368Z,101383
2018-09-27T08:13:50.232Z,101381
2018-09-27T08:14:55.396Z,101381
2018-09-27T08:16:01.074Z,101381
2018-09-27T08:17:06.336Z,101386
2018-09-27T08:18:12.014Z,101383
2018-09-27T08:19:17.261Z,101380
2018-09-27T08:20:22.913Z,101386
2018-09-27T08:21:28.846Z,101383
2018-09-27T08:22:34.294Z,101380
2018-09-27T08:23:39.157Z,101380
2018-09-27T08:24:44.633Z,101383
2018-09-27T08:25:49.794Z,101377
2018-09-27T08:26:54.954Z,101377
2018-09-27T08:28:00.457Z,101371
2018-09-27T08:29:05.369Z,101374
2018-09-27T08:30:10.702Z,101383
2018-09-27T08:31:16.077Z,101389
2018-09-27T08:32:21.999Z,101380
2018-09-27T08:33:27.850Z,101371
2018-09-27T08:34:33.002Z,101383
2018-09-27T08:35:37.335Z,101383
2018-09-27T08:36:42.749Z,101377
2018-09-27T08:37:48.191Z,101368
2018-09-27T08:38:53.786Z,101374
2018-09-27T08:39:59.260Z,101371
2018-09-27T08:41:04.691Z,101366
2018-09-27T08:42:09.886Z,101374
2018-09-27T08:43:14.614Z,101366
2018-09-27T08:44:19.482Z,101363
2018-09-27T08:45:27.029Z,101363
2018-09-27T08:46:32.777Z,101360
2018-09-27T08:47:38.213Z,101352
2018-09-27T08:48:43.615Z,101352
2018-09-27T08:49:48.935Z,101366
2018-09-27T08:50:54.406Z,101352
2018-09-27T08:51:59.906Z,101363
2018-09-27T08:53:05.404Z,101352
2018-09-27T08:54:10.574Z,101366
2018-09-27T08:55:16.061Z,101343
2018-09-27T08:56:21.487Z,101343
2018-09-27T08:57:27.401Z,101346
2018-09-27T08:58:32.474Z,101343
2018-09-27T08:59:37.630Z,101332
2018-09-27T09:00:43.412Z,101337
2018-09-27T09:01:48.879Z,101335
2018-09-27T09:02:54.098Z,101335
2018-09-27T09:04:00.349Z,101340
2018-09-27T09:05:06.327Z,101332
2018-09-27T09:06:11.725Z,101335
2018-09-27T09:07:17.168Z,101326
2018-09-27T09:08:22.658Z,101320
2018-09-27T09:09:28.463Z,101326
2018-09-27T09:10:33.985Z,101326
2018-09-27T09:11:39.460Z,101323
2018-09-27T09:12:45.146Z,101326
2018-09-27T09:13:50.364Z,101309
2018-09-27T09:14:55.824Z,101312
2018-09-27T09:16:00.940Z,101314
2018-09-27T09:17:06.091Z,101317
2018-09-27T09:18:11.801Z,101317
2018-09-27T09:19:16.681Z,101311
2018-09-27T09:20:22.145Z,101323
2018-09-27T09:21:28.235Z,101317
2018-09-27T09:22:33.512Z,101306
2018-09-27T09:23:37.929Z,101308
2018-09-27T09:24:43.409Z,101317
2018-09-27T09:25:49.236Z,101304
2018-09-27T09:26:54.736Z,101306
2018-09-27T09:28:00.452Z,101308
2018-09-27T09:29:05.339Z,101308
2018-09-27T09:30:10.217Z,101306
2018-09-27T09:31:16.010Z,101303
2018-09-27T09:32:21.185Z,101300
2018-09-27T09:33:26.750Z,101300
2018-09-27T09:34:31.676Z,101297
2018-09-27T09:35:36.965Z,101295
2018-09-27T09:36:42.282Z,101303
2018-09-27T09:37:47.739Z,101297
2018-09-27T09:38:52.520Z,101283
2018-09-27T09:39:57.746Z,101286
2018-09-27T09:41:03.193Z,101286
2018-09-27T09:42:08.337Z,101283
2018-09-27T09:43:13.428Z,101289
2018-09-27T09:44:18.617Z,101277
2018-09-27T09:45:23.791Z,101268
2018-09-27T09:46:29.607Z,101280
2018-09-27T09:47:34.472Z,101280
2018-09-27T09:48:39.743Z,101280
2018-09-27T09:49:44.608Z,101280
2018-09-27T09:50:49.835Z,101280
2018-09-27T09:51:55.457Z,101271
2018-09-27T09:53:00.643Z,101271
2018-09-27T09:54:05.908Z,101274
2018-09-27T09:55:11.598Z,101274
2018-09-27T09:56:17.105Z,101262
2018-09-27T09:57:22.554Z,101268
2018-09-27T09:58:28.491Z,101256
2018-09-27T09:59:33.650Z,101262
2018-09-27T10:00:39.242Z,101259
2018-09-27T10:01:44.141Z,101251
2018-09-27T10:02:49.321Z,101259
2018-09-27T10:03:55.126Z,101265
2018-09-27T10:05:00.281Z,101256
2018-09-27T10:06:05.717Z,101245
2018-09-27T10:07:11.414Z,101259
2018-09-27T10:08:16.561Z,101245
2018-09-27T10:09:22.086Z,101248
2018-09-27T10:10:27.554Z,101236
2018-09-27T10:11:32.407Z,101239
2018-09-27T10:12:37.811Z,101233
2018-09-27T10:13:43.281Z,101239
2018-09-27T10:14:48.424Z,101233
2018-09-27T10:15:53.840Z,101230
2018-09-27T10:16:58.726Z,101230
2018-09-27T10:18:03.592Z,101221
2018-09-27T10:19:09.003Z,101233
2018-09-27T10:20:14.437Z,101227
2018-09-27T10:21:19.412Z,101227
2018-09-27T10:22:25.284Z,101233
2018-09-27T10:23:30.558Z,101224
2018-09-27T10:24:35.914Z,101218
2018-09-27T10:25:40.880Z,101216
2018-09-27T10:26:46.377Z,101218
2018-09-27T10:27:51.772Z,101216
2018-09-27T10:28:56.994Z,101213
2018-09-27T10:30:02.240Z,101204
2018-09-27T10:31:07.726Z,101210
2018-09-27T10:32:12.708Z,101210
2018-09-27T10:33:17.878Z,101206
2018-09-27T10:34:23.343Z,101198
2018-09-27T10:35:28.555Z,101203
2018-09-27T10:36:33.823Z,101200
2018-09-27T10:37:38.981Z,101194
2018-09-27T10:38:43.842Z,101186
2018-09-27T10:39:49.329Z,101189
2018-09-27T10:40:54.483Z,101189
2018-09-27T10:41:59.061Z,101188
2018-09-27T10:43:04.568Z,101188
2018-09-27T10:44:09.260Z,101186
2018-09-27T10:45:14.417Z,101168
2018-09-27T10:46:20.148Z,101177
2018-09-27T10:47:25.352Z,101180
2018-09-27T10:48:31.204Z,101168
2018-09-27T10:49:36.658Z,101171
2018-09-27T10:50:41.590Z,101179
2018-09-27T10:51:46.984Z,101168
2018-09-27T10:52:52.175Z,101179
2018-09-27T10:53:57.348Z,101179
2018-09-27T10:55:02.453Z,101176
2018-09-27T10:56:07.153Z,101182
2018-09-27T10:57:12.194Z,101176
2018-09-27T10:58:18.234Z,101173
2018-09-27T10:59:22.909Z,101170
2018-09-27T11:00:29.134Z,101173
2018-09-27T11:01:34.401Z,101170
2018-09-27T11:02:39.613Z,101163
2018-09-27T11:03:44.765Z,101176
2018-09-27T11:04:49.989Z,101164
2018-09-27T11:05:55.431Z,101164
2018-09-27T11:07:01.356Z,101157
2018-09-27T11:08:06.600Z,101154
2018-09-27T11:09:11.742Z,101154
2018-09-27T11:10:17.480Z,101148
2018-09-27T11:11:22.835Z,101154
2018-09-27T11:12:29.120Z,101142
2018-09-27T11:13:34.355Z,101148
2018-09-27T11:14:39.504Z,101159
2018-09-27T11:15:45.205Z,101139
2018-09-27T11:16:50.642Z,101151
2018-09-27T11:17:55.778Z,101150
2018-09-27T11:19:01.183Z,101127
2018-09-27T11:20:06.084Z,101133
2018-09-27T11:21:11.096Z,101142
2018-09-27T11:22:16.579Z,101136
2018-09-27T11:23:22.065Z,101133
2018-09-27T11:24:27.894Z,101130
2018-09-27T11:25:33.348Z,101130
2018-09-27T11:26:38.784Z,101136
2018-09-27T11:27:45.083Z,101119
2018-09-27T11:28:50.682Z,101119
2018-09-27T11:29:55.943Z,101116
2018-09-27T11:31:01.334Z,101113
2018-09-27T11:32:05.970Z,101122
2018-09-27T11:33:11.719Z,101110
2018-09-27T11:34:17.554Z,101119
2018-09-27T11:35:22.648Z,101125
2018-09-27T11:36:28.440Z,101119
2018-09-27T11:37:34.400Z,101119
2018-09-27T11:38:39.988Z,101116
2018-09-27T11:39:46.307Z,101116
2018-09-27T11:40:51.221Z,101113
2018-09-27T11:41:56.735Z,101102
2018-09-27T11:43:02.152Z,101102
2018-09-27T11:44:07.534Z,101102
2018-09-27T11:45:13.487Z,101094
2018-09-27T11:46:18.414Z,101099
2018-09-27T11:47:23.864Z,101099
2018-09-27T11:48:29.349Z,101094
2018-09-27T11:49:35.028Z,101088
2018-09-27T11:50:40.477Z,101099
2018-09-27T11:51:46.216Z,101077
2018-09-27T11:52:51.468Z,101077
2018-09-27T11:53:56.381Z,101074
2018-09-27T11:55:02.226Z,101074
2018-09-27T11:56:06.733Z,101065
2018-09-27T11:57:12.189Z,101071
2018-09-27T11:58:17.872Z,101057
2018-09-27T11:59:23.315Z,101060
2018-09-27T12:00:28.790Z,101051
2018-09-27T12:01:34.250Z,101065
2018-09-27T12:02:39.751Z,101065
2018-09-27T12:03:45.501Z,101057
2018-09-27T12:04:49.798Z,101039
2018-09-27T12:05:54.986Z,101048
2018-09-27T12:07:01.001Z,101039
2018-09-27T12:08:05.926Z,101036
2018-09-27T12:09:11.463Z,101022
2018-09-27T12:10:17.437Z,101036
2018-09-27T12:11:22.865Z,101036
2018-09-27T12:12:28.374Z,101034
2018-09-27T12:13:34.077Z,101025
2018-09-27T12:14:39.747Z,101022
2018-09-27T12:15:45.767Z,101019
2018-09-27T12:16:51.096Z,101019
2018-09-27T12:17:56.967Z,101010
2018-09-27T12:19:02.394Z,101016
2018-09-27T12:20:08.065Z,101010
2018-09-27T12:21:13.566Z,101010
2018-09-27T12:22:19.098Z,101005
2018-09-27T12:23:24.160Z,101010
2018-09-27T12:24:29.586Z,101016
2018-09-27T12:25:34.596Z,101007
2018-09-27T12:26:39.660Z,101007
2018-09-27T12:27:45.409Z,100999
2018-09-27T12:28:51.008Z,101005
2018-09-27T12:29:55.916Z,100993
2018-09-27T12:31:01.831Z,100996
2018-09-27T12:32:06.618Z,100996
2018-09-27T12:33:11.565Z,100996
2018-09-27T12:34:17.023Z,100993
2018-09-27T12:35:22.484Z,100982
2018-09-27T12:36:27.844Z,100987
2018-09-27T12:37:33.483Z,100985
2018-09-27T12:38:38.659Z,100976
2018-09-27T12:39:44.767Z,100982
2018-09-27T12:40:50.039Z,100979
2018-09-27T12:41:55.769Z,100971
2018-09-27T12:43:03.023Z,100968
2018-09-27T12:44:07.974Z,100959
2018-09-27T12:45:14.121Z,100953
2018-09-27T12:46:19.619Z,100968
2018-09-27T12:47:24.888Z,100956
2018-09-27T12:48:30.710Z,100959
2018-09-27T12:49:36.453Z,100962
2018-09-27T12:50:42.282Z,100947
2018-09-27T12:51:49.196Z,100962
2018-09-27T12:52:54.873Z,100941
2018-09-27T12:54:00.452Z,100944
2018-09-27T12:55:05.114Z,100956
2018-09-27T12:56:10.292Z,100939
2018-09-27T12:57:15.822Z,100939
2018-09-27T12:58:21.912Z,100933
2018-09-27T12:59:27.222Z,100950
2018-09-27T13:00:32.802Z,100939
2018-09-27T13:01:37.765Z,100933
2018-09-27T13:02:44.210Z,100930
2018-09-27T13:03:51.197Z,100924
2018-09-27T13:04:56.449Z,100927
2018-09-27T13:06:01.694Z,100924
2018-09-27T13:07:07.172Z,100930
2018-09-27T13:08:13.233Z,100927
2018-09-27T13:09:19.437Z,100927
2018-09-27T13:10:26.327Z,100915
2018-09-27T13:11:31.548Z,100913
2018-09-27T13:12:42.549Z,100913
2018-09-27T13:13:48.240Z,100919
2018-09-27T13:14:53.511Z,100919
2018-09-27T13:15:59.304Z,100916
2018-09-27T13:17:04.400Z,100916
2018-09-27T13:18:09.758Z,100910
2018-09-27T13:19:15.210Z,100904
2018-09-27T13:20:20.233Z,100910
2018-09-27T13:22:45.364Z,100901
2018-09-27T13:23:50.999Z,100907
2018-09-27T13:24:56.948Z,100899
2018-09-27T13:26:02.068Z,100896
2018-09-27T13:27:06.669Z,100899
2018-09-27T13:28:12.658Z,100893
2018-09-27T13:29:18.279Z,100893
2018-09-27T13:30:23.499Z,100899
2018-09-27T13:31:29.680Z,100887
2018-09-27T13:32:35.112Z,100881
2018-09-27T13:33:40.242Z,100884
2018-09-27T13:34:45.049Z,100872
2018-09-27T13:35:50.471Z,100881
2018-09-27T13:36:55.485Z,100878
2018-09-27T13:38:00.519Z,100881